Time;durP1;ratioP1;P1;durP2;ratioP2;P2;SDS_P1;SDS_P2;PMS_P1;PMS_P2;Temp;Humidity;BMP_temperature;BMP_pressure;BME280_temperature;BME280_humidity;BME280_pressure;Samples;Min_cycle;Max_cycle;Signal;HPM_P1;HPM_P2
2023/12/11 00:00:16;;;;;;;23.15;6.15;;;;;;;11.42;100.00;99886.22;5247838;28;20024;-77
2023/12/11 00:02:48;;;;;;;30.88;6.18;;;;;;;11.42;100.00;99891.47;5248175;28;20040;-77
2023/12/11 00:05:20;;;;;;;32.58;7.43;;;;;;;11.36;100.00;99886.00;5247654;28;20041;-77
2023/12/11 00:07:52;;;;;;;25.80;6.43;;;;;;;11.30;100.00;99890.09;5248191;28;20037;-77
2023/12/11 00:10:23;;;;;;;31.27;6.30;;;;;;;11.27;100.00;99886.97;5247661;28;20508;-77
2023/12/11 00:12:55;;;;;;;24.00;5.88;;;;;;;11.21;100.00;99888.41;5246815;28;20633;-77
2023/12/11 00:15:27;;;;;;;25.15;6.05;;;;;;;11.30;100.00;99894.53;5247333;28;20067;-77
2023/12/11 00:17:59;;;;;;;33.47;6.22;;;;;;;11.26;100.00;99894.03;5250777;28;20041;-77
2023/12/11 00:20:32;;;;;;;33.92;6.13;;;;;;;11.34;100.00;99898.47;5245031;28;20024;-77
2023/12/11 00:23:04;;;;;;;34.45;8.02;;;;;;;11.35;100.00;99903.56;5244049;28;20471;-77
2023/12/11 00:25:37;;;;;;;25.80;6.43;;;;;;;11.32;100.00;99889.94;5251150;28;20045;-77
2023/12/11 00:28:09;;;;;;;27.05;6.63;;;;;;;11.31;100.00;99876.00;5253862;28;20056;-77
2023/12/11 00:30:40;;;;;;;32.90;7.10;;;;;;;11.28;100.00;99894.69;5250010;28;20036;-77
2023/12/11 00:33:12;;;;;;;25.23;6.07;;;;;;;11.18;100.00;99859.91;5243047;28;20499;-77
2023/12/11 00:35:46;;;;;;;26.92;7.13;;;;;;;11.26;100.00;99878.28;5242467;28;20376;-77
2023/12/11 00:38:17;;;;;;;;;;;;;;;11.82;100.00;99876.81;5242043;28;20029;-77
2023/12/11 00:40:50;;;;;;;28.70;6.57;;;;;;;11.27;100.00;99869.44;5243336;28;19947;-77
2023/12/11 00:43:22;;;;;;;32.00;7.20;;;;;;;11.30;100.00;99874.38;5240927;28;20032;-77
2023/12/11 00:45:54;;;;;;;31.13;7.10;;;;;;;11.31;100.00;99877.81;5241612;28;20475;-77
2023/12/11 00:48:26;;;;;;;34.22;6.53;;;;;;;11.28;100.00;99873.69;5246179;28;20421;-77
2023/12/11 00:50:57;;;;;;;22.90;5.57;;;;;;;11.26;100.00;99869.63;5244416;28;20028;-77
2023/12/11 00:53:29;;;;;;;27.67;7.53;;;;;;;11.30;100.00;99868.31;5244133;28;20037;-77
2023/12/11 00:56:01;;;;;;;29.48;6.20;;;;;;;11.36;100.00;99863.22;5242227;28;20038;-77
2023/12/11 00:58:33;;;;;;;30.20;6.38;;;;;;;11.40;100.00;99872.44;5248508;28;20036;-77
2023/12/11 01:01:06;;;;;;;33.47;8.25;;;;;;;11.41;100.00;99862.78;5242005;28;20034;-77
2023/12/11 01:03:38;;;;;;;27.98;5.78;;;;;;;11.40;100.00;99854.09;5245865;28;20517;-77
2023/12/11 01:06:10;;;;;;;31.48;7.55;;;;;;;11.42;100.00;99851.31;5247546;28;20037;-77
2023/12/11 01:08:42;;;;;;;34.10;7.13;;;;;;;11.40;100.00;99859.34;5244862;28;20037;-77
2023/12/11 01:11:14;;;;;;;23.10;5.70;;;;;;;11.48;100.00;99855.06;5243871;28;20516;-77
2023/12/11 01:13:46;;;;;;;29.05;7.32;;;;;;;11.44;100.00;99852.78;5245283;28;20024;-77
2023/12/11 01:16:18;;;;;;;34.50;7.45;;;;;;;11.48;100.00;99850.66;5226929;28;20053;-77
2023/12/11 01:18:50;;;;;;;29.55;6.07;;;;;;;11.43;100.00;99840.63;5241856;28;20033;-77
2023/12/11 01:21:22;;;;;;;33.95;6.65;;;;;;;11.46;100.00;99842.13;5241858;28;20033;-77
2023/12/11 01:23:54;;;;;;;35.65;7.45;;;;;;;11.45;100.00;99848.38;5239953;28;20108;-77
2023/12/11 01:26:26;;;;;;;35.88;7.25;;;;;;;11.45;100.00;99843.94;5241220;28;20037;-77
2023/12/11 01:28:58;;;;;;;27.65;6.05;;;;;;;11.42;100.00;99841.63;5243244;28;20459;-77
2023/12/11 01:31:30;;;;;;;34.50;6.97;;;;;;;11.44;100.00;99831.81;5237949;28;20395;-77
2023/12/11 01:34:01;;;;;;;22.95;6.25;;;;;;;11.43;100.00;99831.94;5236862;28;20136;-77
2023/12/11 01:36:33;;;;;;;31.30;6.88;;;;;;;11.51;100.00;99836.41;5235000;28;20040;-77
2023/12/11 01:39:06;;;;;;;27.70;5.45;;;;;;;11.49;100.00;99826.06;5234917;28;20033;-77
2023/12/11 01:41:38;;;;;;;26.88;5.38;;;;;;;11.55;100.00;99816.72;5235635;28;20546;-77
2023/12/11 01:44:09;;;;;;;28.88;6.65;;;;;;;11.59;100.00;99823.28;5236491;28;20117;-77
2023/12/11 01:46:41;;;;;;;32.60;6.93;;;;;;;11.63;100.00;99824.59;5235783;28;20036;-77
2023/12/11 01:49:13;;;;;;;26.25;6.65;;;;;;;11.66;100.00;99821.66;5234398;28;20048;-77
2023/12/11 01:51:47;;;;;;;22.25;6.82;;;;;;;11.68;100.00;99815.28;5235583;28;20022;-77
2023/12/11 01:54:19;;;;;;;28.08;6.60;;;;;;;11.71;100.00;99808.91;5235624;28;20044;-77
2023/12/11 01:56:51;;;;;;;27.00;6.65;;;;;;;11.74;100.00;99800.69;5234354;28;20037;-77
2023/12/11 01:59:23;;;;;;;29.67;6.47;;;;;;;11.72;100.00;99805.28;5236399;28;20458;-77
2023/12/11 02:01:55;;;;;;;27.85;6.35;;;;;;;11.73;100.00;99792.97;5235803;28;20026;-77
2023/12/11 02:04:27;;;;;;;28.08;6.57;;;;;;;11.73;100.00;99796.41;5234223;28;20140;-77
2023/12/11 02:06:59;;;;;;;25.45;6.70;;;;;;;11.80;100.00;99792.16;5234598;28;20068;-77
2023/12/11 02:09:32;;;;;;;24.40;6.35;;;;;;;11.82;100.00;99784.97;5235845;28;20032;-77
2023/12/11 02:12:05;;;;;;;27.13;6.35;;;;;;;11.81;100.00;99785.91;5234299;28;20017;-77
2023/12/11 02:14:36;;;;;;;;;;;;;;;12.40;100.00;99783.94;5234494;28;20038;-77
2023/12/11 02:17:09;;;;;;;23.77;5.60;;;;;;;11.78;100.00;99778.41;5235196;28;20362;-77
2023/12/11 02:19:41;;;;;;;26.77;6.53;;;;;;;11.78;100.00;99788.91;5234016;28;20471;-77
2023/12/11 02:22:14;;;;;;;25.23;5.75;;;;;;;11.71;100.00;99776.59;5233318;28;20044;-77
2023/12/11 02:24:50;;;;;;;26.13;5.82;;;;;;;11.80;100.00;99783.47;5234181;28;20037;-77
2023/12/11 02:27:23;;;;;;;27.17;6.85;;;;;;;11.70;100.00;99773.13;5234087;28;20037;-77
2023/12/11 02:29:56;;;;;;;24.70;5.80;;;;;;;11.77;100.00;99776.75;5234464;28;20041;-77
2023/12/11 02:32:27;;;;;;;27.17;6.40;;;;;;;11.87;100.00;99777.44;5234503;28;20048;-77
2023/12/11 02:34:59;;;;;;;29.33;7.65;;;;;;;11.76;100.00;99769.88;5234753;28;20037;-77
2023/12/11 02:37:31;;;;;;;22.38;5.63;;;;;;;11.76;100.00;99772.50;5229434;28;20039;-77
2023/12/11 02:40:04;;;;;;;31.00;6.25;;;;;;;11.82;100.00;99758.72;5230346;28;20047;-77
2023/12/11 02:42:36;;;;;;;29.23;6.35;;;;;;;11.80;100.00;99757.22;5234104;28;20029;-77
2023/12/11 02:45:09;;;;;;;22.77;5.57;;;;;;;11.73;100.00;99754.44;5231891;28;20131;-77
2023/12/11 02:47:40;;;;;;;23.20;6.50;;;;;;;11.72;100.00;99752.81;5232156;28;20033;-77
2023/12/11 02:50:12;;;;;;;21.27;5.30;;;;;;;11.74;100.00;99756.06;5233422;28;20060;-77
2023/12/11 02:52:44;;;;;;;25.60;5.35;;;;;;;11.76;100.00;99748.88;5234171;28;20040;-77
2023/12/11 02:55:16;;;;;;;23.63;5.50;;;;;;;11.70;100.00;99741.66;5233573;28;20030;-77
2023/12/11 02:57:48;;;;;;;19.50;4.22;;;;;;;11.73;100.00;99737.88;5233723;28;20025;-77
2023/12/11 03:00:20;;;;;;;22.25;4.40;;;;;;;11.71;100.00;99724.94;5234007;28;20372;-77
2023/12/11 03:02:52;;;;;;;19.80;4.93;;;;;;;11.60;100.00;99723.47;5233613;28;20025;-77
2023/12/11 03:05:24;;;;;;;19.13;4.97;;;;;;;11.56;100.00;99716.09;5234207;28;20045;-77
2023/12/11 03:07:56;;;;;;;22.15;5.80;;;;;;;11.51;100.00;99713.94;5233165;28;20053;-77
2023/12/11 03:10:27;;;;;;;23.80;5.78;;;;;;;11.49;100.00;99720.34;5232859;28;20406;-77
2023/12/11 03:12:59;;;;;;;23.13;5.25;;;;;;;11.49;100.00;99709.84;5233674;28;20068;-77
2023/12/11 03:15:32;;;;;;;24.48;6.00;;;;;;;11.51;100.00;99705.25;5233780;28;20064;-77
2023/12/11 03:18:03;;;;;;;25.75;5.15;;;;;;;11.53;100.00;99706.72;5233241;28;20041;-77
2023/12/11 03:20:35;;;;;;;24.65;6.18;;;;;;;11.49;100.00;99694.13;5232942;28;20025;-77
2023/12/11 03:23:07;;;;;;;26.25;5.90;;;;;;;11.43;100.00;99696.41;5233988;28;20499;-77
2023/12/11 03:25:39;;;;;;;31.70;6.72;;;;;;;11.43;100.00;99691.16;5232978;28;20095;-77
2023/12/11 03:28:11;;;;;;;24.80;5.25;;;;;;;11.41;100.00;99711.50;5232811;28;20029;-77
2023/12/11 03:30:43;;;;;;;24.27;5.57;;;;;;;11.42;100.00;99696.56;5233524;28;20038;-77
2023/12/11 03:33:16;;;;;;;22.02;6.13;;;;;;;11.46;100.00;99703.13;5232923;28;20529;-77
2023/12/11 03:35:47;;;;;;;25.08;5.22;;;;;;;11.52;100.00;99699.03;5233520;28;20481;-77
2023/12/11 03:38:19;;;;;;;21.63;5.18;;;;;;;11.54;100.00;99697.88;5232556;28;20037;-77
2023/12/11 03:40:51;;;;;;;21.20;5.30;;;;;;;11.52;100.00;99701.66;5233317;28;20033;-77
2023/12/11 03:43:23;;;;;;;21.70;5.30;;;;;;;11.49;100.00;99705.44;5234469;28;20044;-77
2023/12/11 03:45:55;;;;;;;25.85;6.90;;;;;;;11.52;100.00;99706.91;5231724;28;20043;-77
2023/12/11 03:48:27;;;;;;;20.43;4.80;;;;;;;11.56;100.00;99708.22;5230849;28;20025;-77
2023/12/11 03:50:59;;;;;;;21.00;4.50;;;;;;;11.54;100.00;99702.31;5233313;28;20039;-77
2023/12/11 03:53:31;;;;;;;21.30;4.53;;;;;;;11.51;100.00;99692.13;5232434;28;20022;-77
2023/12/11 03:56:03;;;;;;;19.35;4.70;;;;;;;11.49;100.00;99699.38;5233288;28;20025;-77
2023/12/11 03:58:35;;;;;;;18.95;3.95;;;;;;;11.40;100.00;99706.38;5234241;28;20033;-77
2023/12/11 04:01:07;;;;;;;16.35;3.53;;;;;;;11.39;100.00;99696.88;5236578;28;20025;-77
2023/12/11 04:03:39;;;;;;;22.25;5.70;;;;;;;11.31;100.00;99694.28;5237666;28;20490;-77
2023/12/11 04:06:11;;;;;;;19.63;4.13;;;;;;;11.36;100.00;99689.34;5237188;28;20356;-77
2023/12/11 04:08:43;;;;;;;19.42;4.75;;;;;;;11.34;100.00;99686.91;5237169;28;20813;-77
2023/12/11 04:11:14;;;;;;;17.02;4.15;;;;;;;11.32;100.00;99699.34;5235968;28;20123;-77
2023/12/11 04:13:46;;;;;;;20.05;5.40;;;;;;;11.32;100.00;99709.81;5234050;28;20483;-77
2023/12/11 04:16:18;;;;;;;18.75;4.93;;;;;;;11.31;100.00;99696.88;5237404;28;20029;-77
2023/12/11 04:18:50;;;;;;;24.55;5.72;;;;;;;11.37;100.00;99696.25;5237020;28;20068;-76
2023/12/11 04:21:22;;;;;;;21.40;4.57;;;;;;;11.30;100.00;99703.94;5236948;28;20109;-77
2023/12/11 04:23:55;;;;;;;22.33;5.45;;;;;;;11.36;100.00;99708.50;5237301;28;20382;-77
2023/12/11 04:26:26;;;;;;;18.60;4.68;;;;;;;11.34;100.00;99693.94;5237140;28;20025;-76
2023/12/11 04:28:58;;;;;;;19.20;4.57;;;;;;;11.31;100.00;99671.47;5237755;28;20051;-77
2023/12/11 04:31:30;;;;;;;25.92;5.13;;;;;;;11.29;100.00;99683.09;5236395;28;21276;-77
2023/12/11 04:34:03;;;;;;;20.98;5.13;;;;;;;11.33;100.00;99673.97;5251680;28;20044;-77
2023/12/11 04:36:34;;;;;;;21.17;5.43;;;;;;;11.28;100.00;99677.06;5251015;28;20044;-77
2023/12/11 04:39:06;;;;;;;22.75;5.32;;;;;;;11.23;100.00;99671.50;5250886;28;20033;-77
2023/12/11 04:41:38;;;;;;;23.75;5.45;;;;;;;11.22;100.00;99663.78;5252943;28;20687;-77
2023/12/11 04:44:10;;;;;;;21.92;4.63;;;;;;;11.19;100.00;99672.78;5252748;28;20490;-77
2023/12/11 04:46:42;;;;;;;24.75;5.45;;;;;;;11.16;100.00;99666.06;5250705;28;20043;-76
2023/12/11 04:49:14;;;;;;;20.30;5.10;;;;;;;11.16;100.00;99663.44;5253683;28;20079;-77
2023/12/11 04:51:46;;;;;;;22.10;3.92;;;;;;;11.20;100.00;99671.81;5251087;28;20035;-77
2023/12/11 04:54:17;;;;;;;24.25;5.30;;;;;;;11.06;100.00;99667.19;5249760;28;20128;-77
2023/12/11 04:56:49;;;;;;;16.80;4.78;;;;;;;11.16;100.00;99667.88;5246209;28;20047;-76
2023/12/11 04:59:21;;;;;;;23.30;5.57;;;;;;;11.13;100.00;99671.63;5250365;28;20033;-77
2023/12/11 05:01:53;;;;;;;26.80;5.30;;;;;;;11.15;100.00;99671.47;5254532;28;20033;-77
2023/12/11 05:04:25;;;;;;;29.65;5.75;;;;;;;11.15;100.00;99661.00;5252375;28;20044;-77
2023/12/11 05:06:57;;;;;;;23.80;5.93;;;;;;;11.18;100.00;99658.88;5249933;28;20135;-76
2023/12/11 05:09:29;;;;;;;23.05;4.75;;;;;;;11.18;100.00;99656.25;5252009;28;20028;-76
2023/12/11 05:12:01;;;;;;;22.05;4.82;;;;;;;11.17;100.00;99665.09;5250534;28;20501;-76
2023/12/11 05:14:33;;;;;;;23.88;5.03;;;;;;;11.15;100.00;99674.09;5251747;28;20406;-76
2023/12/11 05:17:05;;;;;;;28.05;5.47;;;;;;;11.19;100.00;99678.03;5253558;28;20029;-76
2023/12/11 05:19:36;;;;;;;23.52;5.00;;;;;;;11.15;100.00;99674.91;5252432;28;20399;-76
2023/12/11 05:22:08;;;;;;;23.35;5.00;;;;;;;11.13;100.00;99671.63;5250413;28;20035;-77
2023/12/11 05:24:40;;;;;;;22.40;5.55;;;;;;;11.17;100.00;99669.50;5252023;28;20052;-76
2023/12/11 05:27:12;;;;;;;25.58;5.57;;;;;;;11.18;100.00;99660.69;5254456;28;20028;-76
2023/12/11 05:29:44;;;;;;;20.33;5.03;;;;;;;11.20;100.00;99667.38;5248878;28;20025;-77
2023/12/11 05:32:16;;;;;;;24.27;5.38;;;;;;;11.22;100.00;99669.84;5252074;28;20037;-77
2023/12/11 05:34:48;;;;;;;26.27;5.18;;;;;;;11.19;100.00;99675.41;5250835;28;20390;-77
2023/12/11 05:37:20;;;;;;;28.05;5.35;;;;;;;11.29;100.00;99665.59;5251534;28;20045;-77
2023/12/11 05:39:52;;;;;;;21.13;5.15;;;;;;;11.27;100.00;99664.13;5250378;28;20044;-77
2023/12/11 05:42:24;;;;;;;24.23;5.00;;;;;;;11.28;100.00;99658.69;5251561;28;20025;-76
2023/12/11 05:44:55;;;;;;;20.98;4.43;;;;;;;11.37;100.00;99670.84;5251915;28;20025;-76
2023/12/11 05:47:27;;;;;;;18.60;4.53;;;;;;;11.33;100.00;99669.53;5252029;28;20047;-76
2023/12/11 05:50:00;;;;;;;18.52;4.60;;;;;;;11.31;100.00;99663.63;5252992;28;20047;-76
2023/12/11 05:52:32;;;;;;;21.90;5.15;;;;;;;11.39;100.00;99652.31;5243448;28;20044;-76
2023/12/11 05:55:04;;;;;;;17.75;4.57;;;;;;;11.39;100.00;99652.31;5245897;28;20377;-77
2023/12/11 05:57:36;;;;;;;18.70;4.47;;;;;;;11.40;100.00;99660.03;5249925;28;20025;-77
2023/12/11 06:00:08;;;;;;;22.17;5.97;;;;;;;11.37;100.00;99651.66;5242866;28;20700;-77
2023/12/11 06:02:40;;;;;;;21.90;5.43;;;;;;;11.33;100.00;99650.38;5248102;28;20025;-77
2023/12/11 06:05:12;;;;;;;21.25;4.70;;;;;;;11.33;100.00;99666.09;5249968;28;20108;-77
2023/12/11 06:07:44;;;;;;;27.33;5.13;;;;;;;11.35;100.00;99651.81;5250042;28;20025;-77
2023/12/11 06:10:16;;;;;;;23.70;4.78;;;;;;;11.37;100.00;99652.50;5251352;28;20055;-77
2023/12/11 06:12:48;;;;;;;19.02;4.50;;;;;;;11.24;100.00;99649.53;5247821;28;20033;-77
2023/12/11 06:15:19;;;;;;;20.13;4.13;;;;;;;11.33;100.00;99666.09;5254527;28;20475;-77
2023/12/11 06:17:51;;;;;;;17.88;4.53;;;;;;;11.34;100.00;99668.53;5251095;28;20216;-77
2023/12/11 06:20:23;;;;;;;24.23;5.00;;;;;;;11.38;100.00;99677.72;5251797;28;20029;-77
2023/12/11 06:22:55;;;;;;;17.15;4.07;;;;;;;11.38;100.00;99676.91;5250855;28;20028;-77
2023/12/11 06:25:27;;;;;;;24.02;5.13;;;;;;;11.34;100.00;99673.78;5249165;28;20037;-77
2023/12/11 06:27:59;;;;;;;24.88;4.95;;;;;;;11.37;100.00;99683.13;5251846;28;20068;-77
2023/12/11 06:30:31;;;;;;;21.40;5.00;;;;;;;11.30;100.00;99669.84;5251313;28;20037;-77
2023/12/11 06:33:03;;;;;;;17.70;4.57;;;;;;;11.31;100.00;99681.16;5247078;28;20052;-77
2023/12/11 06:35:35;;;;;;;21.48;4.85;;;;;;;11.31;100.00;99666.25;5244539;28;20504;-77
2023/12/11 06:38:06;;;;;;;25.40;4.45;;;;;;;11.24;100.00;99665.25;5237450;28;20517;-77
2023/12/11 06:40:38;;;;;;;22.73;4.53;;;;;;;11.19;100.00;99668.38;5246500;28;20043;-77
2023/12/11 06:43:10;;;;;;;21.13;4.65;;;;;;;11.28;100.00;99677.06;5238683;28;20045;-77
2023/12/11 06:45:42;;;;;;;23.65;5.55;;;;;;;11.25;100.00;99677.41;5241875;28;20066;-77
2023/12/11 06:48:14;;;;;;;23.13;5.63;;;;;;;11.25;100.00;99672.16;5237357;28;20120;-77
2023/12/11 06:50:46;;;;;;;23.95;4.97;;;;;;;11.29;100.00;99677.88;5236677;28;20041;-77
2023/12/11 06:53:18;;;;;;;19.60;4.72;;;;;;;11.23;100.00;99679.34;5243765;28;20044;-77
2023/12/11 06:55:50;;;;;;;20.20;4.28;;;;;;;11.24;100.00;99686.22;5234621;28;20038;-77
2023/12/11 06:58:22;;;;;;;24.33;6.03;;;;;;;11.14;100.00;99681.16;5223542;28;20047;-77
2023/12/11 07:00:54;;;;;;;23.15;5.22;;;;;;;11.19;100.00;99693.78;5237723;28;20116;-77
2023/12/11 07:03:26;;;;;;;16.77;3.63;;;;;;;11.21;100.00;99697.03;5246568;28;20043;-77
2023/12/11 07:05:58;;;;;;;16.88;4.25;;;;;;;11.23;100.00;99700.31;5241492;28;20041;-77
2023/12/11 07:08:30;;;;;;;17.08;4.38;;;;;;;11.24;100.00;99688.03;5236672;28;20029;-77
2023/12/11 07:11:03;;;;;;;20.20;5.07;;;;;;;11.32;100.00;99701.16;5246590;28;20043;-77
2023/12/11 07:13:35;;;;;;;24.83;4.77;;;;;;;11.28;100.00;99702.44;5243609;28;20038;-77
2023/12/11 07:16:07;;;;;;;24.20;4.00;;;;;;;11.30;100.00;99695.25;5245494;28;20666;-77
2023/12/11 07:18:39;;;;;;;17.67;3.95;;;;;;;11.35;100.00;99703.44;5240054;28;20033;-77
2023/12/11 07:21:11;;;;;;;23.30;5.63;;;;;;;11.26;100.00;99705.25;5233946;28;20033;-77
2023/12/11 07:23:44;;;;;;;16.73;4.10;;;;;;;11.29;100.00;99704.94;5222254;28;20053;-77
2023/12/11 07:26:16;;;;;;;15.93;3.50;;;;;;;11.25;100.00;99724.59;5242231;28;20029;-77
2023/12/11 07:28:48;;;;;;;19.10;3.80;;;;;;;11.23;100.00;99721.28;5243090;28;20408;-76
2023/12/11 07:31:20;;;;;;;14.05;3.50;;;;;;;11.26;100.00;99718.34;5241723;28;20059;-76
2023/12/11 07:33:52;;;;;;;16.92;3.78;;;;;;;11.28;100.00;99726.06;5243171;28;20040;-77
2023/12/11 07:36:24;;;;;;;15.40;3.72;;;;;;;11.20;100.00;99732.91;5255486;28;20466;-77
2023/12/11 07:38:56;;;;;;;15.25;3.97;;;;;;;11.26;100.00;99741.97;5253733;28;20032;-77
2023/12/11 07:41:28;;;;;;;17.52;3.95;;;;;;;11.22;100.00;99751.13;5240566;28;20036;-77
2023/12/11 07:44:00;;;;;;;15.95;3.75;;;;;;;11.16;100.00;99747.34;5242862;28;20033;-77
2023/12/11 07:46:32;;;;;;;13.23;3.75;;;;;;;11.12;100.00;99766.16;5244244;28;20037;-77
2023/12/11 07:49:04;;;;;;;16.05;3.75;;;;;;;11.11;100.00;99767.16;5253176;28;20500;-77
2023/12/11 07:51:36;;;;;;;16.55;3.58;;;;;;;11.14;100.00;99772.91;5248370;28;20414;-77
2023/12/11 07:54:08;;;;;;;17.00;3.92;;;;;;;11.17;100.00;99769.97;5251530;28;20029;-77
2023/12/11 07:56:40;;;;;;;15.23;3.88;;;;;;;11.04;100.00;99774.00;5251501;28;20398;-77
2023/12/11 07:59:12;;;;;;;15.50;4.95;;;;;;;11.15;100.00;99777.16;5252249;28;20030;-77
2023/12/11 08:01:44;;;;;;;12.85;3.55;;;;;;;11.12;100.00;99774.03;5250514;28;20036;-77
2023/12/11 08:04:17;;;;;;;15.85;3.92;;;;;;;11.11;100.00;99773.22;5253754;28;20506;-77
2023/12/11 08:06:50;;;;;;;15.57;3.05;;;;;;;11.11;100.00;99790.75;5249292;28;20024;-77
2023/12/11 08:09:22;;;;;;;16.13;3.72;;;;;;;11.08;100.00;99794.50;5254047;28;20045;-77
2023/12/11 08:11:53;;;;;;;22.35;4.05;;;;;;;11.03;100.00;99798.59;5252432;28;20036;-77
2023/12/11 08:14:25;;;;;;;15.40;3.47;;;;;;;11.10;100.00;99808.28;5254152;28;20043;-77
2023/12/11 08:16:58;;;;;;;16.88;3.97;;;;;;;11.10;100.00;99805.66;5252307;28;20043;-77
2023/12/11 08:19:33;;;;;;;13.55;3.72;;;;;;;11.15;100.00;99810.41;5252636;28;20037;-77
2023/12/11 08:22:04;;;;;;;14.45;3.60;;;;;;;11.13;100.00;99807.94;5254117;28;20025;-77
2023/12/11 08:24:36;;;;;;;14.52;3.20;;;;;;;11.16;100.00;99806.81;5249700;28;20025;-77
2023/12/11 08:27:08;;;;;;;16.15;3.63;;;;;;;11.19;100.00;99823.03;5254542;28;20031;-77
2023/12/11 08:29:40;;;;;;;14.07;3.30;;;;;;;11.23;100.00;99825.34;5245298;28;20592;-77
2023/12/11 08:32:12;;;;;;;16.58;3.17;;;;;;;11.22;100.00;99824.53;5242329;28;20045;-77
2023/12/11 08:34:44;;;;;;;13.70;3.17;;;;;;;11.22;100.00;99836.81;5239259;28;20034;-77
2023/12/11 08:37:16;;;;;;;14.87;3.17;;;;;;;11.29;100.00;99846.53;5242561;28;20095;-77
2023/12/11 08:39:48;;;;;;;11.82;2.83;;;;;;;11.27;100.00;99843.22;5241698;28;20292;-77
2023/12/11 08:42:20;;;;;;;13.07;3.22;;;;;;;11.29;100.00;99845.66;5241573;28;20163;-77
2023/12/11 08:44:52;;;;;;;14.45;3.88;;;;;;;11.28;100.00;99849.28;5237167;28;20055;-77
2023/12/11 08:47:24;;;;;;;10.82;3.33;;;;;;;11.37;100.00;99854.41;5244328;28;20569;-77
2023/12/11 08:49:56;;;;;;;18.02;4.38;;;;;;;11.42;100.00;99873.09;5237993;28;20029;-77
2023/12/11 08:52:28;;;;;;;15.85;3.80;;;;;;;11.37;100.00;99864.06;5242292;28;20033;-77
2023/12/11 08:55:00;;;;;;;15.80;3.55;;;;;;;11.31;100.00;99876.00;5235856;28;20040;-77
2023/12/11 08:57:33;;;;;;;14.02;3.30;;;;;;;11.30;100.00;99894.53;5232187;28;20036;-77
2023/12/11 09:00:05;;;;;;;14.38;3.17;;;;;;;11.28;100.00;99905.16;5239045;28;20475;-77
2023/12/11 09:02:37;;;;;;;10.88;2.78;;;;;;;11.32;100.00;99919.59;5242388;28;20360;-77
2023/12/11 09:05:09;;;;;;;14.25;3.60;;;;;;;11.21;100.00;99922.50;5241454;28;20399;-77
2023/12/11 09:07:41;;;;;;;19.92;3.95;;;;;;;11.08;100.00;99922.13;5242441;28;20033;-77
2023/12/11 09:10:13;;;;;;;17.17;4.38;;;;;;;11.03;100.00;99922.59;5237661;28;20220;-76
2023/12/11 09:12:45;;;;;;;17.73;3.60;;;;;;;11.00;100.00;99930.75;5238814;28;20053;-76
2023/12/11 09:15:19;;;;;;;14.60;3.60;;;;;;;10.91;100.00;99937.75;5241956;28;20071;-76
2023/12/11 09:17:50;;;;;;;11.60;3.93;;;;;;;10.98;100.00;99932.69;5239984;28;20044;-76
2023/12/11 09:20:22;;;;;;;13.35;2.75;;;;;;;10.93;100.00;99946.28;5238929;28;20280;-77
2023/12/11 09:22:54;;;;;;;11.98;3.30;;;;;;;10.96;100.00;99955.63;5240529;28;20021;-76
2023/12/11 09:25:26;;;;;;;13.02;2.85;;;;;;;11.01;100.00;99961.22;5238152;28;20032;-76
2023/12/11 09:27:58;;;;;;;12.15;2.95;;;;;;;10.87;100.00;99952.16;5241049;28;20017;-77
2023/12/11 09:30:30;;;;;;;10.55;3.17;;;;;;;10.96;100.00;99982.66;5239913;28;20062;-76
2023/12/11 09:33:02;;;;;;;10.37;2.70;;;;;;;10.95;100.00;99967.09;5250990;28;20044;-77
2023/12/11 09:35:34;;;;;;;9.93;2.28;;;;;;;10.91;100.00;99984.94;5252626;28;20025;-77
2023/12/11 09:38:06;;;;;;;11.40;2.28;;;;;;;11.01;100.00;99987.44;5250336;28;20037;-77
2023/12/11 09:40:38;;;;;;;9.15;2.33;;;;;;;11.07;100.00;99993.88;5252252;28;20037;-77
2023/12/11 09:43:10;;;;;;;12.73;2.75;;;;;;;10.98;100.00;99987.72;5251290;28;20025;-77
2023/12/11 09:45:44;;;;;;;9.80;2.78;;;;;;;11.03;100.00;99997.78;5250196;28;20431;-77
2023/12/11 09:48:16;;;;;;;10.90;3.22;;;;;;;11.14;100.00;100005.41;5251950;28;20028;-77
2023/12/11 09:50:48;;;;;;;11.10;3.10;;;;;;;11.19;100.00;100008.38;5251554;28;20360;-77
2023/12/11 09:53:21;;;;;;;14.50;2.80;;;;;;;11.21;100.00;100016.88;5249834;28;20037;-77
2023/12/11 09:55:52;;;;;;;12.53;3.17;;;;;;;11.28;100.00;100017.09;5245617;28;20039;-77
2023/12/11 09:58:25;;;;;;;15.32;3.03;;;;;;;11.38;100.00;100028.31;5251049;28;20034;-77
2023/12/11 10:01:00;;;;;;;13.00;2.53;;;;;;;11.38;100.00;100029.13;5252645;28;20036;-77
2023/12/11 10:03:32;;;;;;;10.15;2.67;;;;;;;11.31;100.00;100019.41;5249109;28;20044;-77
2023/12/11 10:06:04;;;;;;;9.77;2.45;;;;;;;11.41;100.00;100034.06;5248258;28;20508;-77
2023/12/11 10:08:43;;;;;;;11.13;2.60;;;;;;;11.44;100.00;100039.00;5248704;28;20166;-77
2023/12/11 10:11:16;;;;;;;10.27;2.72;;;;;;;11.47;100.00;100042.28;5251766;28;20029;-77
2023/12/11 10:13:49;;;;;;;13.05;3.10;;;;;;;11.52;100.00;100045.28;5249224;28;20604;-77
2023/12/11 10:16:31;;;;;;;11.43;2.40;;;;;;;11.68;100.00;100054.03;5252070;28;20051;-77
2023/12/11 10:19:03;;;;;;;11.25;3.15;;;;;;;11.61;100.00;100052.19;5249973;28;20386;-77
2023/12/11 10:21:38;;;;;;;10.30;3.08;;;;;;;11.73;100.00;100069.31;5249053;28;20035;-77
2023/12/11 10:24:14;;;;;;;10.65;2.65;;;;;;;11.65;100.00;100064.03;5252760;28;20017;-77
2023/12/11 10:26:52;;;;;;;11.25;2.55;;;;;;;11.61;100.00;100063.50;5248636;28;20021;-77
2023/12/11 10:29:30;;;;;;;10.85;2.28;;;;;;;11.73;100.00;100074.56;5252250;28;20028;-77
2023/12/11 10:32:03;;;;;;;9.23;2.20;;;;;;;11.63;100.00;100073.84;5250731;28;20540;-77
2023/12/11 10:34:45;;;;;;;9.55;2.30;;;;;;;11.66;100.00;100095.34;5250349;28;20033;-77
2023/12/11 10:37:17;;;;;;;10.27;2.22;;;;;;;11.58;100.00;100082.19;5250106;28;20025;-77
2023/12/11 10:39:56;;;;;;;6.65;1.92;;;;;;;11.58;100.00;100090.06;5247195;28;20067;-77
2023/12/11 10:42:28;;;;;;;8.50;2.00;;;;;;;11.57;100.00;100090.22;5250798;28;20055;-77
2023/12/11 10:45:00;;;;;;;9.80;2.50;;;;;;;11.53;100.00;100094.13;5250835;28;20061;-77
2023/12/11 10:47:33;;;;;;;9.50;2.35;;;;;;;11.64;100.00;100102.56;5248994;28;20033;-77
2023/12/11 10:50:06;;;;;;;12.18;2.92;;;;;;;11.55;100.00;100106.09;5251748;28;20027;-77
2023/12/11 10:52:39;;;;;;;8.47;2.40;;;;;;;11.65;100.00;100108.63;5253143;28;20029;-77
2023/12/11 10:55:11;;;;;;;7.38;2.13;;;;;;;11.77;100.00;100117.88;5252779;28;20494;-77
2023/12/11 10:57:45;;;;;;;7.47;1.80;;;;;;;11.81;100.00;100106.09;5248583;28;20060;-77
2023/12/11 11:00:17;;;;;;;7.88;2.40;;;;;;;11.79;100.00;100117.75;5251329;28;20490;-77
2023/12/11 11:02:54;;;;;;;9.75;2.38;;;;;;;11.80;100.00;100128.06;5248824;28;20040;-77
2023/12/11 11:05:29;;;;;;;11.48;2.58;;;;;;;11.91;100.00;100122.59;5249880;28;20040;-77
2023/12/11 11:08:27;;;;;;;12.48;2.75;;;;;;;12.10;100.00;100132.03;5249090;28;20029;-77
2023/12/11 11:11:23;;;;;;;10.80;3.33;;;;;;;12.11;100.00;100138.09;5248983;28;20037;-77
2023/12/11 11:14:17;;;;;;;10.57;2.50;;;;;;;12.16;100.00;100139.28;5252482;28;20025;-77
2023/12/11 11:17:01;;;;;;;7.53;1.80;;;;;;;12.01;100.00;100148.75;5249110;28;20676;-77
2023/12/11 11:19:35;;;;;;;9.57;1.80;;;;;;;11.83;100.00;100148.78;5251825;28;20040;-77
2023/12/11 11:22:10;;;;;;;8.75;2.33;;;;;;;12.01;100.00;100147.88;5250107;28;20501;-77
2023/12/11 11:24:41;;;;;;;8.25;2.15;;;;;;;11.91;100.00;100158.50;5250226;28;20378;-77
2023/12/11 11:27:37;;;;;;;8.23;2.10;;;;;;;12.15;100.00;100173.56;5251562;28;20044;-77
2023/12/11 11:30:10;;;;;;;8.45;2.08;;;;;;;11.87;100.00;100172.94;5251139;28;20029;-76
2023/12/11 11:32:55;;;;;;;5.77;2.07;;;;;;;12.00;100.00;100172.50;5249951;28;20049;-76
2023/12/11 11:35:45;;;;;;;5.00;1.33;;;;;;;11.95;100.00;100186.09;5253579;28;20041;-76
2023/12/11 11:38:19;;;;;;;4.78;1.13;;;;;;;11.59;100.00;100180.06;5253031;28;20028;-76
2023/12/11 11:40:52;;;;;;;5.15;1.02;;;;;;;11.53;100.00;100181.53;5251527;28;20387;-76